sensor_id;sensor_type;location;lat;lon;timestamp;P1;durP1;ratioP1;P2;durP2;ratioP2
1344;SDS011;15375;48.540;9.268;2023-01-08T00:00:52;11.50;;;9.97;;
1344;SDS011;15375;48.540;9.268;2023-01-08T00:03:18;14.10;;;11.40;;
1344;SDS011;15375;48.540;9.268;2023-01-08T00:05:43;11.47;;;9.93;;
1344;SDS011;15375;48.540;9.268;2023-01-08T00:08:08;14.43;;;10.60;;
1344;SDS011;15375;48.540;9.268;2023-01-08T00:10:35;13.90;;;10.80;;
1344;SDS011;15375;48.540;9.268;2023-01-08T00:13:02;12.90;;;9.60;;
1344;SDS011;15375;48.540;9.268;2023-01-08T00:15:28;21.37;;;13.13;;
1344;SDS011;15375;48.540;9.268;2023-01-08T00:17:54;11.77;;;10.57;;
1344;SDS011;15375;48.540;9.268;2023-01-08T00:20:20;13.43;;;10.00;;
1344;SDS011;15375;48.540;9.268;2023-01-08T00:22:49;11.83;;;9.73;;
1344;SDS011;15375;48.540;9.268;2023-01-08T00:25:16;11.20;;;9.30;;
1344;SDS011;15375;48.540;9.268;2023-01-08T00:27:42;12.27;;;10.33;;
1344;SDS011;15375;48.540;9.268;2023-01-08T00:30:08;14.17;;;11.57;;
1344;SDS011;15375;48.540;9.268;2023-01-08T00:32:33;15.10;;;10.60;;
1344;SDS011;15375;48.540;9.268;2023-01-08T00:34:59;12.50;;;10.57;;
1344;SDS011;15375;48.540;9.268;2023-01-08T00:37:25;14.20;;;10.73;;
1344;SDS011;15375;48.540;9.268;2023-01-08T00:39:51;24.20;;;15.20;;
1344;SDS011;15375;48.540;9.268;2023-01-08T00:42:17;14.60;;;12.93;;
1344;SDS011;15375;48.540;9.268;2023-01-08T00:44:42;20.20;;;14.03;;
1344;SDS011;15375;48.540;9.268;2023-01-08T00:47:07;14.57;;;11.80;;
1344;SDS011;15375;48.540;9.268;2023-01-08T00:49:33;17.70;;;13.07;;
1344;SDS011;15375;48.540;9.268;2023-01-08T00:51:58;17.53;;;13.60;;
1344;SDS011;15375;48.540;9.268;2023-01-08T00:54:23;15.30;;;12.43;;
1344;SDS011;15375;48.540;9.268;2023-01-08T00:56:49;17.87;;;14.57;;
1344;SDS011;15375;48.540;9.268;2023-01-08T00:59:14;13.00;;;10.93;;
1344;SDS011;15375;48.540;9.268;2023-01-08T01:01:39;12.77;;;10.30;;
1344;SDS011;15375;48.540;9.268;2023-01-08T01:04:05;11.00;;;9.57;;
1344;SDS011;15375;48.540;9.268;2023-01-08T01:06:30;11.97;;;10.20;;
1344;SDS011;15375;48.540;9.268;2023-01-08T01:08:55;14.37;;;11.30;;
1344;SDS011;15375;48.540;9.268;2023-01-08T01:11:25;13.00;;;11.23;;
1344;SDS011;15375;48.540;9.268;2023-01-08T01:13:52;17.07;;;11.73;;
1344;SDS011;15375;48.540;9.268;2023-01-08T01:16:20;14.63;;;11.53;;
1344;SDS011;15375;48.540;9.268;2023-01-08T01:18:45;13.80;;;11.00;;
1344;SDS011;15375;48.540;9.268;2023-01-08T01:21:20;15.17;;;12.00;;
1344;SDS011;15375;48.540;9.268;2023-01-08T01:23:54;16.33;;;11.73;;
1344;SDS011;15375;48.540;9.268;2023-01-08T01:26:21;17.10;;;12.23;;
1344;SDS011;15375;48.540;9.268;2023-01-08T01:28:48;13.80;;;12.37;;
1344;SDS011;15375;48.540;9.268;2023-01-08T01:31:15;11.90;;;10.53;;
1344;SDS011;15375;48.540;9.268;2023-01-08T01:33:41;14.33;;;11.37;;
1344;SDS011;15375;48.540;9.268;2023-01-08T01:36:08;14.97;;;11.70;;
1344;SDS011;15375;48.540;9.268;2023-01-08T01:38:35;13.53;;;11.10;;
1344;SDS011;15375;48.540;9.268;2023-01-08T01:41:00;11.90;;;10.37;;
1344;SDS011;15375;48.540;9.268;2023-01-08T01:43:36;12.23;;;10.20;;
1344;SDS011;15375;48.540;9.268;2023-01-08T01:46:39;14.03;;;10.97;;
1344;SDS011;15375;48.540;9.268;2023-01-08T01:49:14;10.90;;;9.67;;
1344;SDS011;15375;48.540;9.268;2023-01-08T01:51:46;28.33;;;16.63;;
1344;SDS011;15375;48.540;9.268;2023-01-08T01:54:15;17.90;;;11.87;;
1344;SDS011;15375;48.540;9.268;2023-01-08T01:56:42;15.80;;;10.90;;
1344;SDS011;15375;48.540;9.268;2023-01-08T01:59:08;14.70;;;10.80;;
1344;SDS011;15375;48.540;9.268;2023-01-08T02:01:35;13.53;;;9.40;;
1344;SDS011;15375;48.540;9.268;2023-01-08T02:04:01;13.30;;;9.93;;
1344;SDS011;15375;48.540;9.268;2023-01-08T02:08:59;11.13;;;9.83;;
1344;SDS011;15375;48.540;9.268;2023-01-08T02:11:33;13.33;;;9.60;;
1344;SDS011;15375;48.540;9.268;2023-01-08T02:14:05;10.80;;;8.80;;
1344;SDS011;15375;48.540;9.268;2023-01-08T02:16:56;11.87;;;8.20;;
1344;SDS011;15375;48.540;9.268;2023-01-08T02:28:03;9.70;;;8.50;;
1344;SDS011;15375;48.540;9.268;2023-01-08T02:30:35;9.77;;;8.07;;
1344;SDS011;15375;48.540;9.268;2023-01-08T02:33:01;10.13;;;9.07;;
1344;SDS011;15375;48.540;9.268;2023-01-08T02:35:37;12.07;;;9.40;;
1344;SDS011;15375;48.540;9.268;2023-01-08T02:38:07;12.50;;;9.87;;
1344;SDS011;15375;48.540;9.268;2023-01-08T02:40:49;13.80;;;9.20;;
1344;SDS011;15375;48.540;9.268;2023-01-08T02:43:30;12.63;;;9.40;;
1344;SDS011;15375;48.540;9.268;2023-01-08T02:46:04;11.47;;;8.77;;
1344;SDS011;15375;48.540;9.268;2023-01-08T02:51:04;9.70;;;7.50;;
1344;SDS011;15375;48.540;9.268;2023-01-08T02:53:36;11.47;;;8.53;;
1344;SDS011;15375;48.540;9.268;2023-01-08T02:56:12;9.80;;;8.67;;
1344;SDS011;15375;48.540;9.268;2023-01-08T02:58:41;8.53;;;7.20;;
1344;SDS011;15375;48.540;9.268;2023-01-08T03:01:09;11.07;;;8.30;;
1344;SDS011;15375;48.540;9.268;2023-01-08T03:03:36;11.73;;;8.63;;
1344;SDS011;15375;48.540;9.268;2023-01-08T03:06:06;11.27;;;9.73;;
1344;SDS011;15375;48.540;9.268;2023-01-08T03:08:35;13.23;;;9.50;;
1344;SDS011;15375;48.540;9.268;2023-01-08T03:11:08;9.80;;;8.80;;
1344;SDS011;15375;48.540;9.268;2023-01-08T03:13:37;12.93;;;9.50;;
1344;SDS011;15375;48.540;9.268;2023-01-08T03:16:26;14.83;;;9.67;;
1344;SDS011;15375;48.540;9.268;2023-01-08T03:19:01;13.43;;;9.97;;
1344;SDS011;15375;48.540;9.268;2023-01-08T03:21:33;13.23;;;10.00;;
1344;SDS011;15375;48.540;9.268;2023-01-08T03:24:00;12.30;;;9.67;;
1344;SDS011;15375;48.540;9.268;2023-01-08T03:26:26;11.43;;;9.87;;
1344;SDS011;15375;48.540;9.268;2023-01-08T03:28:54;12.53;;;10.40;;
1344;SDS011;15375;48.540;9.268;2023-01-08T03:31:22;12.20;;;9.70;;
1344;SDS011;15375;48.540;9.268;2023-01-08T03:33:51;12.20;;;9.70;;
1344;SDS011;15375;48.540;9.268;2023-01-08T03:36:21;13.33;;;9.60;;
1344;SDS011;15375;48.540;9.268;2023-01-08T03:38:51;13.10;;;9.10;;
1344;SDS011;15375;48.540;9.268;2023-01-08T03:41:20;11.43;;;9.33;;
1344;SDS011;15375;48.540;9.268;2023-01-08T03:43:49;12.07;;;9.70;;
1344;SDS011;15375;48.540;9.268;2023-01-08T03:46:18;12.80;;;9.77;;
1344;SDS011;15375;48.540;9.268;2023-01-08T03:48:49;12.60;;;9.57;;
1344;SDS011;15375;48.540;9.268;2023-01-08T03:51:15;10.93;;;8.63;;
1344;SDS011;15375;48.540;9.268;2023-01-08T03:53:40;10.50;;;9.07;;
1344;SDS011;15375;48.540;9.268;2023-01-08T03:56:06;11.77;;;8.80;;
1344;SDS011;15375;48.540;9.268;2023-01-08T03:58:31;11.50;;;9.50;;
1344;SDS011;15375;48.540;9.268;2023-01-08T04:00:56;9.17;;;8.10;;
1344;SDS011;15375;48.540;9.268;2023-01-08T04:03:22;12.13;;;7.87;;
1344;SDS011;15375;48.540;9.268;2023-01-08T04:05:48;9.03;;;8.13;;
1344;SDS011;15375;48.540;9.268;2023-01-08T04:08:14;10.07;;;8.80;;
1344;SDS011;15375;48.540;9.268;2023-01-08T04:10:39;9.70;;;8.33;;
1344;SDS011;15375;48.540;9.268;2023-01-08T04:13:04;7.70;;;6.90;;
1344;SDS011;15375;48.540;9.268;2023-01-08T04:15:30;10.73;;;8.73;;
1344;SDS011;15375;48.540;9.268;2023-01-08T04:17:55;10.03;;;7.90;;
1344;SDS011;15375;48.540;9.268;2023-01-08T04:20:20;11.20;;;8.93;;
1344;SDS011;15375;48.540;9.268;2023-01-08T04:22:46;9.00;;;8.10;;
1344;SDS011;15375;48.540;9.268;2023-01-08T04:25:11;11.90;;;9.33;;
1344;SDS011;15375;48.540;9.268;2023-01-08T04:27:36;11.23;;;7.47;;
1344;SDS011;15375;48.540;9.268;2023-01-08T04:30:02;9.50;;;7.70;;
1344;SDS011;15375;48.540;9.268;2023-01-08T04:32:28;9.67;;;8.60;;
1344;SDS011;15375;48.540;9.268;2023-01-08T04:34:54;10.77;;;9.43;;
1344;SDS011;15375;48.540;9.268;2023-01-08T04:37:19;11.47;;;9.80;;
1344;SDS011;15375;48.540;9.268;2023-01-08T04:39:44;11.80;;;8.40;;
1344;SDS011;15375;48.540;9.268;2023-01-08T04:42:10;10.80;;;8.07;;
1344;SDS011;15375;48.540;9.268;2023-01-08T04:44:35;9.87;;;8.83;;
1344;SDS011;15375;48.540;9.268;2023-01-08T04:47:01;13.57;;;9.47;;
1344;SDS011;15375;48.540;9.268;2023-01-08T04:49:26;9.70;;;8.67;;
1344;SDS011;15375;48.540;9.268;2023-01-08T04:51:51;12.20;;;9.23;;
1344;SDS011;15375;48.540;9.268;2023-01-08T04:54:17;11.17;;;9.20;;
1344;SDS011;15375;48.540;9.268;2023-01-08T04:56:42;9.10;;;8.17;;
1344;SDS011;15375;48.540;9.268;2023-01-08T04:59:07;10.80;;;8.80;;
1344;SDS011;15375;48.540;9.268;2023-01-08T05:01:33;10.30;;;8.53;;
1344;SDS011;15375;48.540;9.268;2023-01-08T05:03:59;10.63;;;8.20;;
1344;SDS011;15375;48.540;9.268;2023-01-08T05:06:27;10.50;;;9.40;;
1344;SDS011;15375;48.540;9.268;2023-01-08T05:08:53;13.30;;;7.93;;
1344;SDS011;15375;48.540;9.268;2023-01-08T05:11:19;9.47;;;7.27;;
1344;SDS011;15375;48.540;9.268;2023-01-08T05:13:46;10.20;;;8.03;;
1344;SDS011;15375;48.540;9.268;2023-01-08T05:16:13;12.40;;;9.87;;
1344;SDS011;15375;48.540;9.268;2023-01-08T05:18:38;9.90;;;8.10;;
1344;SDS011;15375;48.540;9.268;2023-01-08T05:21:03;9.27;;;7.80;;
1344;SDS011;15375;48.540;9.268;2023-01-08T05:23:30;12.93;;;8.10;;
1344;SDS011;15375;48.540;9.268;2023-01-08T05:25:57;9.90;;;8.33;;
1344;SDS011;15375;48.540;9.268;2023-01-08T05:28:23;9.53;;;7.70;;
1344;SDS011;15375;48.540;9.268;2023-01-08T05:30:48;8.63;;;7.20;;
1344;SDS011;15375;48.540;9.268;2023-01-08T05:33:14;12.10;;;8.03;;
1344;SDS011;15375;48.540;9.268;2023-01-08T05:35:39;10.17;;;8.10;;
1344;SDS011;15375;48.540;9.268;2023-01-08T05:38:05;9.20;;;6.87;;
1344;SDS011;15375;48.540;9.268;2023-01-08T05:40:31;9.03;;;7.03;;
1344;SDS011;15375;48.540;9.268;2023-01-08T05:42:58;9.47;;;6.67;;
1344;SDS011;15375;48.540;9.268;2023-01-08T05:45:24;10.07;;;7.57;;
1344;SDS011;15375;48.540;9.268;2023-01-08T05:47:49;8.97;;;7.97;;
1344;SDS011;15375;48.540;9.268;2023-01-08T05:50:14;10.57;;;8.17;;
1344;SDS011;15375;48.540;9.268;2023-01-08T05:52:40;8.33;;;6.47;;
1344;SDS011;15375;48.540;9.268;2023-01-08T05:55:05;11.70;;;8.23;;
1344;SDS011;15375;48.540;9.268;2023-01-08T05:57:31;9.63;;;7.83;;
1344;SDS011;15375;48.540;9.268;2023-01-08T05:59:56;10.93;;;7.97;;
1344;SDS011;15375;48.540;9.268;2023-01-08T06:02:21;9.43;;;7.77;;
1344;SDS011;15375;48.540;9.268;2023-01-08T06:04:47;11.60;;;7.70;;
1344;SDS011;15375;48.540;9.268;2023-01-08T06:07:12;10.20;;;8.30;;
1344;SDS011;15375;48.540;9.268;2023-01-08T06:09:37;8.83;;;7.33;;
1344;SDS011;15375;48.540;9.268;2023-01-08T06:12:03;7.67;;;6.27;;
1344;SDS011;15375;48.540;9.268;2023-01-08T06:14:28;9.70;;;7.60;;
1344;SDS011;15375;48.540;9.268;2023-01-08T06:16:53;7.90;;;6.93;;
1344;SDS011;15375;48.540;9.268;2023-01-08T06:19:19;7.07;;;6.30;;
1344;SDS011;15375;48.540;9.268;2023-01-08T06:21:44;10.20;;;7.90;;
1344;SDS011;15375;48.540;9.268;2023-01-08T06:24:10;8.27;;;6.60;;
1344;SDS011;15375;48.540;9.268;2023-01-08T06:26:35;9.37;;;6.77;;
1344;SDS011;15375;48.540;9.268;2023-01-08T06:29:01;9.40;;;7.20;;
1344;SDS011;15375;48.540;9.268;2023-01-08T06:31:26;7.70;;;6.90;;
1344;SDS011;15375;48.540;9.268;2023-01-08T06:33:51;11.23;;;7.70;;
1344;SDS011;15375;48.540;9.268;2023-01-08T06:36:17;8.00;;;7.20;;
1344;SDS011;15375;48.540;9.268;2023-01-08T06:38:42;9.43;;;8.20;;
1344;SDS011;15375;48.540;9.268;2023-01-08T06:41:08;10.83;;;8.20;;
1344;SDS011;15375;48.540;9.268;2023-01-08T06:43:35;7.77;;;6.83;;
1344;SDS011;15375;48.540;9.268;2023-01-08T06:46:01;6.80;;;5.60;;
1344;SDS011;15375;48.540;9.268;2023-01-08T06:48:27;7.77;;;4.40;;
1344;SDS011;15375;48.540;9.268;2023-01-08T06:50:52;3.53;;;3.23;;
1344;SDS011;15375;48.540;9.268;2023-01-08T06:53:18;4.33;;;3.60;;
1344;SDS011;15375;48.540;9.268;2023-01-08T06:55:43;5.53;;;3.97;;
1344;SDS011;15375;48.540;9.268;2023-01-08T06:58:09;4.30;;;3.90;;
1344;SDS011;15375;48.540;9.268;2023-01-08T07:00:36;8.63;;;6.33;;
1344;SDS011;15375;48.540;9.268;2023-01-08T07:03:02;4.30;;;3.90;;
1344;SDS011;15375;48.540;9.268;2023-01-08T07:05:28;10.93;;;7.80;;
1344;SDS011;15375;48.540;9.268;2023-01-08T07:07:53;5.87;;;5.27;;
1344;SDS011;15375;48.540;9.268;2023-01-08T07:10:18;4.80;;;4.10;;
1344;SDS011;15375;48.540;9.268;2023-01-08T07:12:44;8.53;;;5.00;;
1344;SDS011;15375;48.540;9.268;2023-01-08T07:15:09;7.50;;;5.70;;
1344;SDS011;15375;48.540;9.268;2023-01-08T07:17:35;6.40;;;4.10;;
1344;SDS011;15375;48.540;9.268;2023-01-08T07:20:01;5.10;;;4.70;;
1344;SDS011;15375;48.540;9.268;2023-01-08T07:22:27;5.70;;;4.40;;
1344;SDS011;15375;48.540;9.268;2023-01-08T07:24:52;5.50;;;4.37;;
1344;SDS011;15375;48.540;9.268;2023-01-08T07:27:17;6.60;;;5.60;;
1344;SDS011;15375;48.540;9.268;2023-01-08T07:29:43;4.83;;;3.97;;
1344;SDS011;15375;48.540;9.268;2023-01-08T07:32:09;6.80;;;4.67;;
1344;SDS011;15375;48.540;9.268;2023-01-08T07:34:34;4.10;;;3.70;;
1344;SDS011;15375;48.540;9.268;2023-01-08T07:37:01;4.20;;;3.80;;
1344;SDS011;15375;48.540;9.268;2023-01-08T07:39:26;6.90;;;3.63;;
1344;SDS011;15375;48.540;9.268;2023-01-08T07:41:52;3.97;;;3.40;;
1344;SDS011;15375;48.540;9.268;2023-01-08T07:44:17;3.90;;;3.37;;
1344;SDS011;15375;48.540;9.268;2023-01-08T07:46:42;4.67;;;4.27;;
1344;SDS011;15375;48.540;9.268;2023-01-08T07:49:08;4.40;;;3.90;;
1344;SDS011;15375;48.540;9.268;2023-01-08T07:51:33;7.70;;;5.20;;
1344;SDS011;15375;48.540;9.268;2023-01-08T07:53:59;4.53;;;4.00;;
1344;SDS011;15375;48.540;9.268;2023-01-08T07:56:25;6.53;;;5.67;;
1344;SDS011;15375;48.540;9.268;2023-01-08T07:58:50;7.03;;;6.30;;
1344;SDS011;15375;48.540;9.268;2023-01-08T08:01:15;6.20;;;5.60;;
1344;SDS011;15375;48.540;9.268;2023-01-08T08:03:41;8.93;;;6.40;;
1344;SDS011;15375;48.540;9.268;2023-01-08T08:06:07;12.73;;;5.50;;
1344;SDS011;15375;48.540;9.268;2023-01-08T08:08:33;5.73;;;4.13;;
1344;SDS011;15375;48.540;9.268;2023-01-08T08:10:59;5.43;;;4.73;;
1344;SDS011;15375;48.540;9.268;2023-01-08T08:13:24;7.50;;;4.60;;
1344;SDS011;15375;48.540;9.268;2023-01-08T08:15:50;5.60;;;4.77;;
1344;SDS011;15375;48.540;9.268;2023-01-08T08:18:15;5.80;;;5.20;;
1344;SDS011;15375;48.540;9.268;2023-01-08T08:20:40;5.47;;;4.90;;
1344;SDS011;15375;48.540;9.268;2023-01-08T08:23:09;7.00;;;4.70;;
1344;SDS011;15375;48.540;9.268;2023-01-08T08:25:39;7.57;;;5.80;;
1344;SDS011;15375;48.540;9.268;2023-01-08T08:28:06;9.50;;;6.77;;
1344;SDS011;15375;48.540;9.268;2023-01-08T08:30:32;6.13;;;5.47;;
1344;SDS011;15375;48.540;9.268;2023-01-08T08:33:00;6.57;;;5.93;;
1344;SDS011;15375;48.540;9.268;2023-01-08T08:35:26;6.83;;;5.90;;
1344;SDS011;15375;48.540;9.268;2023-01-08T08:37:53;6.40;;;5.77;;
1344;SDS011;15375;48.540;9.268;2023-01-08T08:40:19;6.97;;;5.43;;
1344;SDS011;15375;48.540;9.268;2023-01-08T08:42:45;5.83;;;5.23;;
1344;SDS011;15375;48.540;9.268;2023-01-08T08:45:10;4.53;;;4.13;;
1344;SDS011;15375;48.540;9.268;2023-01-08T08:47:36;5.50;;;4.93;;
1344;SDS011;15375;48.540;9.268;2023-01-08T08:50:01;5.67;;;4.73;;
1344;SDS011;15375;48.540;9.268;2023-01-08T08:52:28;3.80;;;3.43;;
1344;SDS011;15375;48.540;9.268;2023-01-08T08:54:54;4.03;;;3.20;;
1344;SDS011;15375;48.540;9.268;2023-01-08T08:57:21;4.43;;;3.17;;
1344;SDS011;15375;48.540;9.268;2023-01-08T08:59:47;3.93;;;3.27;;
1344;SDS011;15375;48.540;9.268;2023-01-08T09:02:13;5.40;;;2.70;;
1344;SDS011;15375;48.540;9.268;2023-01-08T09:04:38;2.40;;;1.80;;
1344;SDS011;15375;48.540;9.268;2023-01-08T09:07:03;2.10;;;2.00;;
1344;SDS011;15375;48.540;9.268;2023-01-08T09:09:29;2.17;;;1.60;;
1344;SDS011;15375;48.540;9.268;2023-01-08T09:11:54;1.50;;;1.40;;
1344;SDS011;15375;48.540;9.268;2023-01-08T09:14:20;2.40;;;1.53;;
1344;SDS011;15375;48.540;9.268;2023-01-08T09:16:45;2.00;;;1.33;;
1344;SDS011;15375;48.540;9.268;2023-01-08T09:19:11;1.60;;;1.10;;
1344;SDS011;15375;48.540;9.268;2023-01-08T09:21:37;1.00;;;0.90;;
1344;SDS011;15375;48.540;9.268;2023-01-08T09:24:02;1.80;;;1.40;;
1344;SDS011;15375;48.540;9.268;2023-01-08T09:26:28;1.00;;;0.90;;
1344;SDS011;15375;48.540;9.268;2023-01-08T09:28:54;1.80;;;1.00;;
1344;SDS011;15375;48.540;9.268;2023-01-08T09:31:21;0.90;;;0.80;;
1344;SDS011;15375;48.540;9.268;2023-01-08T09:33:47;1.07;;;0.97;;
1344;SDS011;15375;48.540;9.268;2023-01-08T09:36:12;1.13;;;0.90;;
1344;SDS011;15375;48.540;9.268;2023-01-08T09:38:38;1.03;;;0.90;;
1344;SDS011;15375;48.540;9.268;2023-01-08T09:41:04;1.20;;;0.97;;
1344;SDS011;15375;48.540;9.268;2023-01-08T09:43:34;2.40;;;1.13;;
1344;SDS011;15375;48.540;9.268;2023-01-08T09:46:03;3.00;;;1.60;;
1344;SDS011;15375;48.540;9.268;2023-01-08T09:48:35;0.97;;;0.90;;
1344;SDS011;15375;48.540;9.268;2023-01-08T09:51:02;0.77;;;0.77;;
1344;SDS011;15375;48.540;9.268;2023-01-08T09:53:28;1.10;;;0.87;;
1344;SDS011;15375;48.540;9.268;2023-01-08T09:55:54;1.10;;;0.80;;
1344;SDS011;15375;48.540;9.268;2023-01-08T10:01:15;1.90;;;0.77;;
1344;SDS011;15375;48.540;9.268;2023-01-08T10:03:57;1.03;;;0.90;;
1344;SDS011;15375;48.540;9.268;2023-01-08T10:06:28;1.20;;;1.00;;
1344;SDS011;15375;48.540;9.268;2023-01-08T10:08:55;1.73;;;0.90;;
1344;SDS011;15375;48.540;9.268;2023-01-08T10:11:21;1.30;;;1.13;;
1344;SDS011;15375;48.540;9.268;2023-01-08T10:13:51;0.97;;;0.80;;
1344;SDS011;15375;48.540;9.268;2023-01-08T10:18:51;1.00;;;0.90;;
1344;SDS011;15375;48.540;9.268;2023-01-08T10:21:17;1.77;;;0.77;;
1344;SDS011;15375;48.540;9.268;2023-01-08T10:23:52;1.03;;;0.93;;
1344;SDS011;15375;48.540;9.268;2023-01-08T10:26:25;1.43;;;1.00;;
1344;SDS011;15375;48.540;9.268;2023-01-08T10:31:53;1.47;;;1.27;;
1344;SDS011;15375;48.540;9.268;2023-01-08T10:36:54;1.53;;;1.10;;
1344;SDS011;15375;48.540;9.268;2023-01-08T10:39:27;1.60;;;1.23;;
1344;SDS011;15375;48.540;9.268;2023-01-08T10:41:55;1.17;;;1.07;;
1344;SDS011;15375;48.540;9.268;2023-01-08T10:44:27;6.10;;;1.67;;
1344;SDS011;15375;48.540;9.268;2023-01-08T10:46:55;1.30;;;1.10;;
1344;SDS011;15375;48.540;9.268;2023-01-08T10:49:40;1.37;;;1.10;;
1344;SDS011;15375;48.540;9.268;2023-01-08T10:52:19;1.73;;;1.50;;
1344;SDS011;15375;48.540;9.268;2023-01-08T10:54:52;1.50;;;1.40;;
1344;SDS011;15375;48.540;9.268;2023-01-08T10:57:21;3.43;;;1.63;;
1344;SDS011;15375;48.540;9.268;2023-01-08T10:59:52;1.27;;;1.13;;
1344;SDS011;15375;48.540;9.268;2023-01-08T11:04:58;3.53;;;1.87;;
1344;SDS011;15375;48.540;9.268;2023-01-08T11:07:24;3.27;;;1.10;;
1344;SDS011;15375;48.540;9.268;2023-01-08T11:09:50;1.53;;;1.30;;
1344;SDS011;15375;48.540;9.268;2023-01-08T11:12:25;1.70;;;1.33;;
1344;SDS011;15375;48.540;9.268;2023-01-08T11:14:57;1.47;;;1.37;;
1344;SDS011;15375;48.540;9.268;2023-01-08T11:17:23;1.53;;;1.43;;
1344;SDS011;15375;48.540;9.268;2023-01-08T11:19:50;2.77;;;1.73;;
1344;SDS011;15375;48.540;9.268;2023-01-08T11:22:17;1.57;;;1.10;;
1344;SDS011;15375;48.540;9.268;2023-01-08T11:24:43;2.20;;;1.90;;
1344;SDS011;15375;48.540;9.268;2023-01-08T11:32:45;1.10;;;1.00;;
1344;SDS011;15375;48.540;9.268;2023-01-08T11:35:14;0.93;;;0.80;;
1344;SDS011;15375;48.540;9.268;2023-01-08T11:37:55;1.80;;;1.70;;
1344;SDS011;15375;48.540;9.268;2023-01-08T11:49:01;1.47;;;1.37;;
1344;SDS011;15375;48.540;9.268;2023-01-08T11:51:56;2.27;;;1.60;;
1344;SDS011;15375;48.540;9.268;2023-01-08T12:02:37;1.20;;;1.10;;
1344;SDS011;15375;48.540;9.268;2023-01-08T12:05:18;0.97;;;0.97;;
1344;SDS011;15375;48.540;9.268;2023-01-08T12:21:33;1.50;;;0.97;;
1344;SDS011;15375;48.540;9.268;2023-01-08T12:24:24;1.10;;;0.87;;
1344;SDS011;15375;48.540;9.268;2023-01-08T12:29:53;1.13;;;1.00;;
1344;SDS011;15375;48.540;9.268;2023-01-08T12:32:41;3.43;;;2.30;;
1344;SDS011;15375;48.540;9.268;2023-01-08T12:35:17;2.00;;;1.70;;
1344;SDS011;15375;48.540;9.268;2023-01-08T12:38:01;1.27;;;1.17;;
1344;SDS011;15375;48.540;9.268;2023-01-08T12:40:35;1.20;;;1.10;;
1344;SDS011;15375;48.540;9.268;2023-01-08T12:43:11;1.60;;;1.40;;
1344;SDS011;15375;48.540;9.268;2023-01-08T12:45:42;2.17;;;1.67;;
1344;SDS011;15375;48.540;9.268;2023-01-08T12:48:20;1.40;;;1.27;;
1344;SDS011;15375;48.540;9.268;2023-01-08T12:56:51;6.00;;;3.93;;
1344;SDS011;15375;48.540;9.268;2023-01-08T12:59:47;3.17;;;2.87;;
1344;SDS011;15375;48.540;9.268;2023-01-08T13:02:36;1.50;;;1.40;;
1344;SDS011;15375;48.540;9.268;2023-01-08T13:05:35;2.33;;;2.03;;
1344;SDS011;15375;48.540;9.268;2023-01-08T13:08:04;2.13;;;1.80;;
1344;SDS011;15375;48.540;9.268;2023-01-08T13:10:50;2.30;;;1.70;;
1344;SDS011;15375;48.540;9.268;2023-01-08T13:13:37;1.97;;;1.10;;
1344;SDS011;15375;48.540;9.268;2023-01-08T13:18:49;1.57;;;1.27;;
1344;SDS011;15375;48.540;9.268;2023-01-08T13:21:16;1.13;;;0.90;;
1344;SDS011;15375;48.540;9.268;2023-01-08T13:23:42;1.30;;;1.10;;
1344;SDS011;15375;48.540;9.268;2023-01-08T13:26:07;1.43;;;1.27;;
1344;SDS011;15375;48.540;9.268;2023-01-08T13:31:37;2.70;;;2.00;;
1344;SDS011;15375;48.540;9.268;2023-01-08T13:33:53;28.27;;;14.47;;
1344;SDS011;15375;48.540;9.268;2023-01-08T13:36:26;3.07;;;1.70;;
1344;SDS011;15375;48.540;9.268;2023-01-08T13:41:58;1.30;;;1.20;;
1344;SDS011;15375;48.540;9.268;2023-01-08T13:47:06;1.57;;;0.80;;
1344;SDS011;15375;48.540;9.268;2023-01-08T13:49:53;2.37;;;1.87;;
1344;SDS011;15375;48.540;9.268;2023-01-08T13:55:11;1.93;;;1.60;;
1344;SDS011;15375;48.540;9.268;2023-01-08T13:57:41;1.90;;;1.10;;
1344;SDS011;15375;48.540;9.268;2023-01-08T14:00:18;4.03;;;2.10;;
1344;SDS011;15375;48.540;9.268;2023-01-08T14:02:47;39.00;;;22.27;;
1344;SDS011;15375;48.540;9.268;2023-01-08T14:05:32;14.27;;;8.50;;
1344;SDS011;15375;48.540;9.268;2023-01-08T14:08:01;1.73;;;1.50;;
1344;SDS011;15375;48.540;9.268;2023-01-08T14:10:27;2.00;;;1.47;;
1344;SDS011;15375;48.540;9.268;2023-01-08T14:12:55;2.33;;;1.10;;
1344;SDS011;15375;48.540;9.268;2023-01-08T14:15:32;7.17;;;6.10;;
1344;SDS011;15375;48.540;9.268;2023-01-08T14:17:59;8.40;;;7.00;;
1344;SDS011;15375;48.540;9.268;2023-01-08T14:20:30;2.30;;;2.00;;
1344;SDS011;15375;48.540;9.268;2023-01-08T14:23:12;3.03;;;2.77;;
1344;SDS011;15375;48.540;9.268;2023-01-08T14:25:47;2.50;;;2.00;;
1344;SDS011;15375;48.540;9.268;2023-01-08T14:28:18;32.13;;;26.40;;
1344;SDS011;15375;48.540;9.268;2023-01-08T14:33:14;2.20;;;2.10;;
1344;SDS011;15375;48.540;9.268;2023-01-08T14:35:43;4.60;;;4.30;;
1344;SDS011;15375;48.540;9.268;2023-01-08T14:38:11;4.73;;;4.43;;
1344;SDS011;15375;48.540;9.268;2023-01-08T14:40:40;4.30;;;3.97;;
1344;SDS011;15375;48.540;9.268;2023-01-08T14:43:10;6.10;;;5.60;;
1344;SDS011;15375;48.540;9.268;2023-01-08T14:45:38;4.60;;;4.20;;
1344;SDS011;15375;48.540;9.268;2023-01-08T14:51:01;1.37;;;1.27;;
1344;SDS011;15375;48.540;9.268;2023-01-08T14:53:34;2.20;;;2.03;;
1344;SDS011;15375;48.540;9.268;2023-01-08T14:56:01;1.50;;;1.40;;
1344;SDS011;15375;48.540;9.268;2023-01-08T14:58:33;2.17;;;1.40;;
1344;SDS011;15375;48.540;9.268;2023-01-08T15:01:05;3.30;;;2.43;;
1344;SDS011;15375;48.540;9.268;2023-01-08T15:03:38;3.67;;;2.07;;
1344;SDS011;15375;48.540;9.268;2023-01-08T15:06:07;2.53;;;2.00;;
1344;SDS011;15375;48.540;9.268;2023-01-08T15:08:36;1.93;;;1.77;;
1344;SDS011;15375;48.540;9.268;2023-01-08T15:11:12;2.10;;;1.90;;
1344;SDS011;15375;48.540;9.268;2023-01-08T15:13:48;4.53;;;2.63;;
1344;SDS011;15375;48.540;9.268;2023-01-08T15:16:16;4.50;;;2.83;;
1344;SDS011;15375;48.540;9.268;2023-01-08T15:19:03;5.63;;;2.90;;
1344;SDS011;15375;48.540;9.268;2023-01-08T15:21:31;3.50;;;2.90;;
1344;SDS011;15375;48.540;9.268;2023-01-08T15:23:58;5.00;;;3.50;;
1344;SDS011;15375;48.540;9.268;2023-01-08T15:26:25;7.57;;;5.57;;
1344;SDS011;15375;48.540;9.268;2023-01-08T15:28:55;6.30;;;3.80;;
1344;SDS011;15375;48.540;9.268;2023-01-08T15:31:26;6.67;;;3.73;;
1344;SDS011;15375;48.540;9.268;2023-01-08T15:34:06;4.33;;;3.23;;
1344;SDS011;15375;48.540;9.268;2023-01-08T15:36:32;10.50;;;8.33;;
1344;SDS011;15375;48.540;9.268;2023-01-08T15:38:57;15.20;;;10.03;;
1344;SDS011;15375;48.540;9.268;2023-01-08T15:41:23;8.00;;;7.20;;
1344;SDS011;15375;48.540;9.268;2023-01-08T15:44:07;8.20;;;7.10;;
1344;SDS011;15375;48.540;9.268;2023-01-08T15:46:34;20.67;;;12.70;;
1344;SDS011;15375;48.540;9.268;2023-01-08T15:49:00;12.40;;;9.33;;
1344;SDS011;15375;48.540;9.268;2023-01-08T15:51:25;13.70;;;10.03;;
1344;SDS011;15375;48.540;9.268;2023-01-08T15:53:53;11.93;;;10.13;;
1344;SDS011;15375;48.540;9.268;2023-01-08T15:56:19;11.53;;;10.33;;
1344;SDS011;15375;48.540;9.268;2023-01-08T15:58:44;9.80;;;7.50;;
1344;SDS011;15375;48.540;9.268;2023-01-08T16:01:09;10.90;;;7.63;;
1344;SDS011;15375;48.540;9.268;2023-01-08T16:03:35;14.23;;;9.30;;
1344;SDS011;15375;48.540;9.268;2023-01-08T16:06:04;5.13;;;4.10;;
1344;SDS011;15375;48.540;9.268;2023-01-08T16:08:30;7.67;;;4.07;;
1344;SDS011;15375;48.540;9.268;2023-01-08T16:10:56;3.90;;;2.90;;
1344;SDS011;15375;48.540;9.268;2023-01-08T16:13:21;10.27;;;5.57;;
1344;SDS011;15375;48.540;9.268;2023-01-08T16:15:46;21.20;;;13.93;;
1344;SDS011;15375;48.540;9.268;2023-01-08T16:18:12;15.50;;;9.10;;
1344;SDS011;15375;48.540;9.268;2023-01-08T16:20:38;12.80;;;8.10;;
1344;SDS011;15375;48.540;9.268;2023-01-08T16:23:03;21.77;;;12.17;;
1344;SDS011;15375;48.540;9.268;2023-01-08T16:25:29;9.70;;;6.33;;
1344;SDS011;15375;48.540;9.268;2023-01-08T16:27:55;7.70;;;4.70;;
1344;SDS011;15375;48.540;9.268;2023-01-08T16:30:21;3.00;;;2.37;;
1344;SDS011;15375;48.540;9.268;2023-01-08T16:32:51;1.87;;;1.77;;
1344;SDS011;15375;48.540;9.268;2023-01-08T16:35:17;3.13;;;1.93;;